Time;durP1;ratioP1;P1;durP2;ratioP2;P2;SDS_P1;SDS_P2;PMS_P1;PMS_P2;Temp;Humidity;BMP_temperature;BMP_pressure;BME280_temperature;BME280_humidity;BME280_pressure;Samples;Min_cycle;Max_cycle;Signal;HPM_P1;HPM_P2
2022/03/13 00:00:47;;;;;;;26.83;16.75;;;7.50;1.00;;;;;;5082724;28;20056;-91
2022/03/13 00:03:14;;;;;;;27.48;17.20;;;7.50;1.00;;;;;;5097787;28;20056;-90
2022/03/13 00:05:44;;;;;;;27.20;16.13;;;7.50;1.00;;;;;;5096846;28;20087;-90
2022/03/13 00:08:27;;;;;;;32.33;16.55;;;8.80;1.00;;;;;;5103519;28;20040;-89
2022/03/13 00:10:59;;;;;;;27.27;16.83;;;8.50;1.00;;;;;;5107146;28;20094;-90
2022/03/13 00:13:38;;;;;;;25.55;15.98;;;7.60;1.00;;;;;;5092381;28;20094;-89
2022/03/13 00:16:09;;;;;;;29.02;16.77;;;9.10;1.00;;;;;;5093108;28;20538;-89
2022/03/13 00:18:36;;;;;;;30.25;18.38;;;7.50;1.00;;;;;;5098530;28;20105;-89
2022/03/13 00:21:04;;;;;;;29.80;16.77;;;7.50;1.00;;;;;;5096500;28;20407;-89
2022/03/13 00:23:31;;;;;;;28.10;17.52;;;8.30;1.00;;;;;;5091495;28;20066;-91
2022/03/13 00:25:57;;;;;;;26.35;16.95;;;9.30;1.00;;;;;;5092865;28;20457;-89
2022/03/13 00:28:22;;;;;;;30.98;18.30;;;7.60;1.00;;;;;;5104568;28;20123;-90
2022/03/13 00:30:48;;;;;;;28.83;17.58;;;7.40;1.00;;;;;;5090525;28;20389;-90
2022/03/13 00:33:14;;;;;;;28.23;17.30;;;7.50;1.00;;;;;;5106260;28;20047;-91
2022/03/13 00:35:40;;;;;;;27.48;16.27;;;8.80;1.00;;;;;;5091865;28;20087;-89
2022/03/13 00:38:06;;;;;;;28.95;17.23;;;8.60;1.00;;;;;;5108736;28;20457;-89
2022/03/13 00:40:33;;;;;;;29.77;17.88;;;8.60;1.00;;;;;;5105314;28;20067;-88
2022/03/13 00:43:00;;;;;;;28.15;17.80;;;7.50;1.00;;;;;;5096126;28;20434;-90
2022/03/13 00:45:27;;;;;;;27.60;16.85;;;;;;;;;;5092522;28;20425;-91
2022/03/13 00:47:52;;;;;;;29.55;17.05;;;7.50;1.00;;;;;;5075247;28;20071;-89
2022/03/13 00:50:18;;;;;;;28.65;18.90;;;8.20;1.00;;;;;;5110156;28;20074;-89
2022/03/13 00:52:44;;;;;;;26.48;17.90;;;7.50;1.00;;;;;;5098061;28;20429;-89
2022/03/13 00:55:10;;;;;;;28.05;16.50;;;7.50;1.00;;;;;;5096471;28;20511;-89
2022/03/13 00:57:36;;;;;;;28.60;17.90;;;7.90;1.00;;;;;;5079969;28;20089;-89
2022/03/13 01:00:04;;;;;;;28.90;18.05;;;9.80;1.00;;;;;;5115573;27;20464;-89
2022/03/13 01:02:29;;;;;;;25.77;16.92;;;7.60;1.00;;;;;;5114233;27;20130;-89
2022/03/13 01:04:55;;;;;;;26.00;16.45;;;8.50;1.00;;;;;;5099939;27;20118;-89
2022/03/13 01:07:21;;;;;;;26.85;16.63;;;7.80;1.00;;;;;;5100655;28;20050;-89
2022/03/13 01:09:47;;;;;;;26.75;16.50;;;7.90;1.00;;;;;;5110268;27;20051;-89
2022/03/13 01:12:13;;;;;;;30.88;17.67;;;7.70;1.00;;;;;;5115979;27;20055;-90
2022/03/13 01:14:42;;;;;;;28.17;17.52;;;9.50;1.00;;;;;;5095264;27;20054;-89
2022/03/13 01:17:09;;;;;;;29.42;17.27;;;7.60;1.00;;;;;;5110781;27;20129;-89
2022/03/13 01:19:37;;;;;;;24.83;16.42;;;7.70;1.00;;;;;;5118212;27;20454;-89
2022/03/13 01:22:03;;;;;;;;;;;7.60;1.00;;;;;;5109390;27;20471;-89
2022/03/13 01:24:42;;;;;;;31.38;16.75;;;7.50;1.00;;;;;;5093326;28;19919;-88
2022/03/13 01:27:08;;;;;;;29.08;17.17;;;7.70;1.00;;;;;;5078349;28;20052;-89
2022/03/13 01:29:34;;;;;;;27.90;16.88;;;8.00;1.00;;;;;;5118816;27;20058;-89
2022/03/13 01:32:00;;;;;;;31.70;16.95;;;8.10;1.00;;;;;;5105791;27;20470;-89
2022/03/13 01:34:39;;;;;;;30.58;18.42;;;7.80;1.00;;;;;;5112414;27;20040;-91
2022/03/13 01:37:10;;;;;;;29.23;17.38;;;7.80;1.00;;;;;;5129255;27;20081;-89
2022/03/13 01:39:37;;;;;;;27.42;16.85;;;8.00;1.00;;;;;;5093555;28;20050;-89
2022/03/13 01:42:03;;;;;;;30.00;17.40;;;7.80;1.00;;;;;;5116556;27;20081;-89
2022/03/13 01:44:29;;;;;;;26.48;17.02;;;7.70;1.00;;;;;;5118176;27;20407;-90
2022/03/13 01:46:55;;;;;;;31.52;18.05;;;8.40;1.00;;;;;;5120378;27;20043;-92
2022/03/13 01:49:21;;;;;;;28.35;18.10;;;7.60;1.00;;;;;;5124982;27;20055;-90
2022/03/13 01:51:47;;;;;;;32.80;18.25;;;7.80;1.00;;;;;;5119003;27;20096;-89
2022/03/13 01:54:14;;;;;;;24.52;16.85;;;7.90;1.00;;;;;;5117558;27;20035;-88
2022/03/13 01:56:41;;;;;;;30.20;17.23;;;8.00;1.00;;;;;;5119898;27;20575;-89
2022/03/13 01:59:09;;;;;;;25.17;16.30;;;8.00;1.00;;;;;;5098628;28;20140;-88
2022/03/13 02:01:35;;;;;;;28.15;17.13;;;;;;;;;;5108386;27;20042;-89
2022/03/13 02:04:01;;;;;;;29.95;18.75;;;8.00;1.00;;;;;;5117274;27;20050;-89
2022/03/13 02:06:27;;;;;;;29.52;18.17;;;8.90;1.00;;;;;;5115970;27;20120;-89
2022/03/13 02:08:57;;;;;;;34.42;19.42;;;6.70;1.00;;;;;;5111483;28;20479;-89
2022/03/13 02:11:28;;;;;;;28.90;18.00;;;7.80;1.00;;;;;;5096786;28;20051;-89
2022/03/13 02:13:55;;;;;;;28.48;17.17;;;9.70;1.00;;;;;;5094446;28;20050;-89
2022/03/13 02:16:21;;;;;;;33.07;18.57;;;7.90;1.00;;;;;;5094120;28;20087;-89
2022/03/13 02:18:49;;;;;;;30.98;18.27;;;9.70;1.00;;;;;;5113261;28;20040;-89
2022/03/13 02:21:16;;;;;;;;;;;9.80;1.00;;;;;;5111310;28;20040;-89
2022/03/13 02:23:42;;;;;;;27.15;16.02;;;9.80;1.00;;;;;;5115404;28;19964;-89
2022/03/13 02:26:08;;;;;;;31.08;17.35;;;7.60;1.00;;;;;;5127426;28;20089;-89
2022/03/13 02:28:36;;;;;;;32.30;18.73;;;7.60;1.00;;;;;;5094531;28;20072;-89
2022/03/13 02:31:04;;;;;;;27.30;18.25;;;8.50;1.00;;;;;;5105383;28;20047;-90
2022/03/13 02:33:31;;;;;;;27.85;17.65;;;7.50;1.00;;;;;;5110636;27;20137;-89
2022/03/13 02:36:22;;;;;;;30.92;18.50;;;7.60;1.00;;;;;;5115759;27;20525;-89
2022/03/13 02:38:47;;;;;;;33.20;17.60;;;7.70;1.00;;;;;;5120902;27;20089;-90
2022/03/13 02:41:13;;;;;;;31.17;19.05;;;8.00;1.00;;;;;;5116425;27;20089;-89
2022/03/13 02:43:39;;;;;;;29.75;18.17;;;7.70;1.00;;;;;;5117062;27;20534;-88
2022/03/13 02:46:19;;;;;;;31.20;17.50;;;9.50;1.00;;;;;;5115442;27;20035;-90
2022/03/13 02:48:48;;;;;;;30.00;18.67;;;7.90;1.00;;;;;;5125798;27;20508;-88
2022/03/13 02:51:14;;;;;;;27.70;18.17;;;7.60;1.00;;;;;;5123057;27;20085;-91
2022/03/13 02:53:40;;;;;;;30.38;18.10;;;7.70;1.00;;;;;;5121635;27;20130;-89
2022/03/13 02:56:06;;;;;;;29.95;18.10;;;7.70;1.00;;;;;;5104086;27;20179;-89
2022/03/13 02:58:35;;;;;;;26.77;17.85;;;7.40;1.00;;;;;;5127698;27;20106;-88
2022/03/13 03:01:01;;;;;;;28.83;18.02;;;;;;;;;;5128583;27;20047;-89
2022/03/13 03:03:27;;;;;;;28.67;17.27;;;7.70;1.00;;;;;;5097054;27;20411;-88
2022/03/13 03:05:53;;;;;;;30.98;16.92;;;7.70;1.00;;;;;;5114961;27;20112;-88
2022/03/13 03:08:19;;;;;;;27.63;17.55;;;8.00;1.00;;;;;;5117229;27;20036;-89
2022/03/13 03:10:45;;;;;;;30.35;17.95;;;8.80;1.00;;;;;;5101810;27;20086;-89
2022/03/13 03:13:13;;;;;;;33.05;19.05;;;8.40;1.00;;;;;;5105092;27;20079;-89
2022/03/13 03:15:39;;;;;;;29.13;18.08;;;7.70;1.00;;;;;;5113422;27;20050;-91
2022/03/13 03:18:09;;;;;;;27.92;18.35;;;8.60;1.00;;;;;;5106051;27;20048;-89
2022/03/13 03:20:38;;;;;;;30.77;17.23;;;7.70;1.00;;;;;;5120840;27;20058;-89
2022/03/13 03:23:05;;;;;;;28.63;17.63;;;7.70;1.00;;;;;;5115230;27;20039;-88
2022/03/13 03:25:31;;;;;;;31.75;18.67;;;7.80;1.00;;;;;;5115317;27;20085;-91
2022/03/13 03:27:58;;;;;;;29.25;18.27;;;9.10;1.00;;;;;;5105320;28;20074;-87
2022/03/13 03:30:27;;;;;;;28.52;17.38;;;7.90;1.00;;;;;;5120828;27;20039;-90
2022/03/13 03:32:54;;;;;;;29.52;17.33;;;7.70;1.00;;;;;;5106853;27;20043;-88
2022/03/13 03:35:24;;;;;;;29.30;18.10;;;7.80;1.00;;;;;;5129082;27;20047;-88
2022/03/13 03:37:52;;;;;;;27.55;17.33;;;10.20;1.00;;;;;;5095444;28;20127;-89
2022/03/13 03:40:22;;;;;;;29.05;17.70;;;7.80;1.00;;;;;;5115415;27;20124;-89
2022/03/13 03:42:47;;;;;;;27.13;16.77;;;7.90;1.00;;;;;;5092139;28;20136;-89
2022/03/13 03:45:16;;;;;;;31.23;18.17;;;9.20;1.00;;;;;;5106194;28;20441;-89
2022/03/13 03:47:45;;;;;;;30.13;18.25;;;8.10;1.00;;;;;;5120183;27;20044;-91
2022/03/13 03:50:12;;;;;;;33.03;18.58;;;7.30;1.00;;;;;;5121817;27;20432;-88
2022/03/13 03:52:37;;;;;;;34.20;18.98;;;7.70;1.00;;;;;;5110195;27;20134;-88
2022/03/13 03:55:03;;;;;;;31.77;18.17;;;7.50;1.00;;;;;;5128454;27;20130;-89
2022/03/13 03:57:30;;;;;;;28.83;18.00;;;;;;;;;;5104174;27;20489;-89
2022/03/13 03:59:56;;;;;;;29.83;17.05;;;;;;;;;;5121389;27;20047;-88
2022/03/13 04:02:22;;;;;;;27.98;17.08;;;;;;;;;;5095751;28;20385;-87
2022/03/13 04:04:48;;;;;;;27.95;18.05;;;7.30;1.00;;;;;;5113149;27;20052;-89
2022/03/13 04:07:14;;;;;;;30.75;18.70;;;7.20;1.00;;;;;;5119618;27;20048;-89
2022/03/13 04:09:41;;;;;;;29.88;18.38;;;7.40;1.00;;;;;;5113157;27;20131;-89
2022/03/13 04:12:08;;;;;;;32.05;18.98;;;;;;;;;;5125246;27;20043;-88
2022/03/13 04:14:37;;;;;;;31.23;18.20;;;6.90;1.00;;;;;;5094973;28;20048;-88
2022/03/13 04:17:05;;;;;;;31.73;19.63;;;7.00;1.00;;;;;;5113374;27;20092;-89
2022/03/13 04:19:31;;;;;;;34.35;19.60;;;6.80;1.00;;;;;;5128231;27;20069;-89
2022/03/13 04:21:57;;;;;;;27.83;17.60;;;8.00;1.00;;;;;;5124979;27;20043;-89
2022/03/13 04:24:23;;;;;;;30.83;17.85;;;6.60;1.00;;;;;;5126823;27;20051;-88
2022/03/13 04:26:50;;;;;;;30.35;18.70;;;6.60;1.00;;;;;;5101477;28;20064;-88
2022/03/13 04:29:18;;;;;;;34.03;20.30;;;7.10;1.00;;;;;;5122890;27;20126;-89
2022/03/13 04:31:46;;;;;;;31.38;18.40;;;8.40;1.00;;;;;;5086884;28;20472;-89
2022/03/13 04:34:12;;;;;;;30.10;19.27;;;7.30;1.00;;;;;;5113674;27;20050;-89
2022/03/13 04:36:38;;;;;;;30.33;19.50;;;6.50;1.00;;;;;;5122784;27;20050;-88
2022/03/13 04:39:05;;;;;;;31.63;19.40;;;6.90;1.00;;;;;;5097375;27;20485;-89
2022/03/13 04:41:32;;;;;;;31.58;20.52;;;8.60;1.00;;;;;;5132462;27;20059;-88
2022/03/13 04:43:58;;;;;;;34.65;19.60;;;6.70;1.00;;;;;;5123289;27;20071;-89
2022/03/13 04:46:25;;;;;;;33.45;19.83;;;6.50;1.00;;;;;;5104105;27;20046;-89
2022/03/13 04:48:52;;;;;;;29.83;19.40;;;8.20;1.00;;;;;;5112622;27;20042;-88
2022/03/13 04:51:18;;;;;;;27.88;18.10;;;8.50;1.00;;;;;;5126873;27;20035;-89
2022/03/13 04:53:44;;;;;;;29.77;19.15;;;9.10;1.00;;;;;;5103462;27;20031;-90
2022/03/13 04:56:10;;;;;;;26.90;18.77;;;6.50;1.00;;;;;;5097737;28;20120;-90
2022/03/13 04:58:36;;;;;;;32.38;18.67;;;;;;;;;;5093555;27;20051;-93
2022/03/13 05:01:02;;;;;;;29.27;18.70;;;6.50;1.00;;;;;;5119227;27;20055;-90
2022/03/13 05:03:27;;;;;;;31.55;19.40;;;6.40;1.00;;;;;;5105940;27;20066;-90
2022/03/13 05:05:53;;;;;;;29.10;18.33;;;6.20;1.00;;;;;;5123772;27;20074;-89
2022/03/13 05:08:20;;;;;;;31.40;18.50;;;8.80;1.00;;;;;;5097606;28;20110;-89
2022/03/13 05:10:47;;;;;;;31.13;18.77;;;6.80;1.00;;;;;;5119379;27;20623;-89
2022/03/13 05:13:16;;;;;;;35.60;17.80;;;8.70;1.00;;;;;;5095622;28;20114;-90
2022/03/13 05:15:44;;;;;;;30.20;18.42;;;6.40;1.00;;;;;;5112821;27;20098;-89
2022/03/13 05:18:10;;;;;;;30.17;18.45;;;6.90;1.00;;;;;;5115680;27;20031;-89
2022/03/13 05:20:36;;;;;;;30.25;19.60;;;8.80;1.00;;;;;;5094711;28;20115;-89
2022/03/13 05:23:03;;;;;;;32.58;18.73;;;6.50;1.00;;;;;;5100588;27;20143;-89
2022/03/13 05:25:31;;;;;;;34.03;19.55;;;6.40;1.00;;;;;;5119344;27;20054;-89
2022/03/13 05:27:57;;;;;;;37.92;18.45;;;6.60;1.00;;;;;;5075957;28;20101;-89
2022/03/13 05:30:24;;;;;;;29.52;18.77;;;8.60;1.00;;;;;;5127102;27;20035;-89
2022/03/13 05:32:50;;;;;;;33.40;19.55;;;6.20;1.00;;;;;;5107072;27;20118;-88
2022/03/13 05:35:16;;;;;;;29.75;18.08;;;6.20;1.00;;;;;;5118968;27;20117;-88
2022/03/13 05:37:43;;;;;;;31.67;19.90;;;6.20;1.00;;;;;;5112109;27;20467;-89
2022/03/13 05:40:13;;;;;;;30.80;18.63;;;7.50;1.00;;;;;;5111474;27;20078;-88
2022/03/13 05:42:45;;;;;;;31.20;19.17;;;6.10;1.00;;;;;;5117063;27;20048;-89
2022/03/13 05:45:13;;;;;;;32.63;18.05;;;8.20;1.00;;;;;;5110267;27;20066;-89
2022/03/13 05:47:49;;;;;;;29.50;18.02;;;6.30;1.00;;;;;;5113379;27;20384;-88
2022/03/13 05:50:16;;;;;;;29.15;17.83;;;6.10;1.00;;;;;;5096860;28;20101;-89
2022/03/13 05:52:44;;;;;;;29.93;17.97;;;8.30;1.00;;;;;;5081779;28;20096;-90
2022/03/13 05:55:10;;;;;;;32.83;17.98;;;8.30;1.00;;;;;;5116885;27;20043;-88
2022/03/13 05:57:37;;;;;;;30.77;16.92;;;6.20;1.00;;;;;;5097801;28;20417;-89
2022/03/13 06:00:11;;;;;;;29.13;17.80;;;6.60;1.00;;;;;;5104125;27;20095;-90
2022/03/13 06:02:40;;;;;;;26.77;16.27;;;6.30;1.00;;;;;;5118803;27;20413;-88
2022/03/13 06:05:08;;;;;;;32.30;18.70;;;8.40;1.00;;;;;;5114897;27;20258;-88
2022/03/13 06:07:34;;;;;;;28.25;17.23;;;8.00;1.00;;;;;;5101286;27;20043;-89
2022/03/13 06:10:03;;;;;;;31.05;19.65;;;8.40;1.00;;;;;;5125215;27;20380;-88
2022/03/13 06:12:32;;;;;;;28.42;17.67;;;6.30;1.00;;;;;;5116751;28;20078;-89
2022/03/13 06:14:59;;;;;;;25.23;16.65;;;6.30;1.00;;;;;;5126820;28;20496;-89
2022/03/13 06:17:25;;;;;;;29.35;16.52;;;8.30;1.00;;;;;;5111651;28;20100;-89
2022/03/13 06:19:51;;;;;;;30.83;18.02;;;7.20;1.00;;;;;;5124911;28;20043;-89
2022/03/13 06:22:18;;;;;;;29.13;17.10;;;7.10;1.00;;;;;;5093886;28;20665;-88
2022/03/13 06:24:44;;;;;;;29.67;17.17;;;8.70;1.00;;;;;;5095423;28;20051;-89
2022/03/13 06:27:10;;;;;;;28.48;16.95;;;5.60;1.00;;;;;;5076792;28;20043;-88
2022/03/13 06:29:38;;;;;;;28.83;16.58;;;8.40;1.00;;;;;;5120075;27;20046;-90
2022/03/13 06:32:04;;;;;;;29.90;17.40;;;6.30;1.00;;;;;;5108769;28;20051;-89
2022/03/13 06:34:30;;;;;;;26.38;16.17;;;6.30;1.00;;;;;;5084448;28;20043;-89
2022/03/13 06:36:56;;;;;;;28.67;16.52;;;5.90;1.00;;;;;;5120493;28;20204;-87
2022/03/13 06:39:22;;;;;;;27.77;16.13;;;6.20;1.00;;;;;;5126805;28;20083;-90
2022/03/13 06:41:48;;;;;;;29.08;15.60;;;9.00;1.00;;;;;;5074339;28;20058;-92
2022/03/13 06:44:14;;;;;;;25.73;15.73;;;6.90;1.00;;;;;;5076926;28;20039;-89
2022/03/13 06:46:40;;;;;;;28.80;16.52;;;7.00;1.00;;;;;;5110190;28;20067;-90
2022/03/13 06:49:06;;;;;;;26.67;16.40;;;;;;;;;;5113370;28;20042;-89
2022/03/13 06:51:32;;;;;;;24.67;15.45;;;6.50;1.00;;;;;;5081616;28;20055;-87
2022/03/13 06:53:59;;;;;;;30.38;15.77;;;;;;;;;;5057020;28;20078;-87
2022/03/13 06:56:24;;;;;;;27.98;15.32;;;6.50;1.00;;;;;;5114762;28;20084;-87
2022/03/13 06:58:55;;;;;;;26.05;16.25;;;6.70;1.00;;;;;;5110146;28;20158;-87
2022/03/13 07:01:21;;;;;;;25.58;15.98;;;6.40;1.00;;;;;;5111983;28;20089;-87
2022/03/13 07:03:46;;;;;;;24.95;14.85;;;5.00;1.00;;;;;;5103983;28;20536;-89
2022/03/13 07:06:12;;;;;;;24.55;15.20;;;6.10;1.00;;;;;;5088455;28;20047;-88
2022/03/13 07:08:38;;;;;;;27.77;15.05;;;7.70;1.00;;;;;;5112638;28;20135;-87
2022/03/13 07:11:09;;;;;;;24.80;15.52;;;6.70;1.00;;;;;;5111325;28;20519;-88
2022/03/13 07:13:35;;;;;;;26.63;15.00;;;6.80;1.00;;;;;;5076910;28;21063;-88
2022/03/13 07:16:03;;;;;;;24.17;15.38;;;7.20;1.00;;;;;;5107339;27;20050;-88
2022/03/13 07:18:30;;;;;;;30.30;15.50;;;7.10;1.00;;;;;;5127121;27;20035;-89
2022/03/13 07:20:55;;;;;;;26.33;14.88;;;7.00;1.00;;;;;;5085907;27;20074;-88
2022/03/13 07:23:22;;;;;;;26.17;14.75;;;7.20;1.00;;;;;;5120261;27;20082;-86
2022/03/13 07:25:49;;;;;;;24.17;14.15;;;7.10;1.00;;;;;;5123916;27;20055;-89
2022/03/13 07:28:15;;;;;;;24.58;15.60;;;7.20;1.00;;;;;;5102371;28;20042;-89
2022/03/13 07:30:40;;;;;;;22.75;13.93;;;7.80;1.00;;;;;;5111347;27;20538;-89
2022/03/13 07:33:06;;;;;;;27.23;14.73;;;7.50;1.00;;;;;;5117457;27;20124;-87
2022/03/13 07:35:32;;;;;;;24.23;13.70;;;5.80;1.00;;;;;;5113438;27;20059;-88
2022/03/13 07:37:58;;;;;;;22.67;14.45;;;8.60;1.00;;;;;;5112509;27;20093;-90
2022/03/13 07:40:24;;;;;;;24.95;13.75;;;7.70;1.00;;;;;;5096340;28;20089;-88
2022/03/13 07:42:49;;;;;;;23.77;13.82;;;7.90;1.00;;;;;;5094766;28;20506;-87
2022/03/13 07:45:15;;;;;;;24.08;14.20;;;8.60;1.00;;;;;;5119519;27;20122;-88
2022/03/13 07:47:41;;;;;;;21.40;14.07;;;8.00;1.00;;;;;;5115218;27;20043;-88
2022/03/13 07:50:08;;;;;;;22.17;13.95;;;8.20;1.00;;;;;;5096693;27;20138;-88
2022/03/13 07:52:34;;;;;;;21.38;13.75;;;8.40;1.00;;;;;;5128012;27;20078;-87
2022/03/13 07:55:06;;;;;;;24.30;13.50;;;10.60;1.00;;;;;;5095876;28;20075;-88
2022/03/13 07:57:33;;;;;;;20.85;12.40;;;8.00;1.00;;;;;;5120193;27;20047;-86
2022/03/13 07:59:58;;;;;;;27.13;12.73;;;10.60;1.00;;;;;;5113328;27;20047;-87
2022/03/13 08:02:24;;;;;;;23.60;13.30;;;7.30;1.00;;;;;;5110186;27;20047;-86
2022/03/13 08:04:50;;;;;;;22.88;13.55;;;8.90;1.00;;;;;;5113333;28;20047;-86
2022/03/13 08:07:27;;;;;;;21.05;13.50;;;9.00;1.00;;;;;;5091983;27;20046;-89
2022/03/13 08:09:54;;;;;;;22.23;13.93;;;9.00;1.00;;;;;;5100481;27;20043;-84
2022/03/13 08:12:20;;;;;;;21.70;12.95;;;9.10;1.00;;;;;;5126866;27;20461;-86
2022/03/13 08:14:46;;;;;;;23.35;13.27;;;9.70;1.00;;;;;;5091687;27;20043;-87
2022/03/13 08:17:12;;;;;;;22.30;12.85;;;9.90;1.00;;;;;;5105305;27;20115;-85
2022/03/13 08:19:38;;;;;;;22.75;12.50;;;10.40;1.00;;;;;;5077349;27;20114;-85
2022/03/13 08:22:05;;;;;;;23.77;13.38;;;12.00;1.00;;;;;;5127764;27;20142;-86
2022/03/13 08:24:30;;;;;;;19.48;11.75;;;12.10;1.00;;;;;;5118565;27;20051;-86
2022/03/13 08:26:57;;;;;;;23.50;12.45;;;12.70;1.00;;;;;;5129156;27;20055;-86
2022/03/13 08:29:22;;;;;;;21.17;12.40;;;12.80;1.00;;;;;;5121976;27;20039;-85
2022/03/13 08:31:48;;;;;;;22.10;12.07;;;12.60;1.00;;;;;;5124762;27;20039;-85
2022/03/13 08:34:14;;;;;;;20.48;12.13;;;12.40;1.00;;;;;;5129919;27;20046;-86
2022/03/13 08:36:43;;;;;;;22.17;12.48;;;12.60;1.00;;;;;;5129493;27;20112;-86
2022/03/13 08:39:09;;;;;;;20.38;12.00;;;13.90;1.00;;;;;;5112007;28;20058;-86
2022/03/13 08:41:35;;;;;;;20.50;11.60;;;13.90;1.00;;;;;;5124595;27;20375;-87
2022/03/13 08:44:01;;;;;;;19.80;11.57;;;14.90;1.00;;;;;;5093588;28;20123;-91
2022/03/13 08:46:27;;;;;;;21.15;11.35;;;15.50;1.00;;;;;;5094245;28;20039;-88
2022/03/13 08:48:56;;;;;;;19.60;11.40;;;15.10;1.00;;;;;;5094719;28;20104;-87
2022/03/13 08:51:23;;;;;;;20.75;11.80;;;15.10;1.00;;;;;;5082253;28;20220;-87
2022/03/13 08:53:50;;;;;;;22.67;11.80;;;14.10;1.00;;;;;;5116046;27;20538;-86
2022/03/13 08:56:17;;;;;;;21.52;12.55;;;13.90;1.00;;;;;;5118894;27;20040;-87
2022/03/13 08:58:43;;;;;;;18.80;11.55;;;13.70;1.00;;;;;;5128126;27;20092;-89
2022/03/13 09:01:09;;;;;;;22.90;11.65;;;13.90;1.00;;;;;;5089766;27;20059;-88
2022/03/13 09:03:36;;;;;;;27.45;11.95;;;14.40;1.00;;;;;;5108413;27;20450;-88
2022/03/13 09:06:03;;;;;;;21.85;11.68;;;14.70;1.00;;;;;;5111869;27;20050;-91
2022/03/13 09:08:30;;;;;;;18.67;11.38;;;15.30;1.00;;;;;;5120538;27;20039;-89
2022/03/13 09:10:55;;;;;;;26.02;12.25;;;15.70;1.00;;;;;;5081361;27;20452;-88
2022/03/13 09:13:22;;;;;;;20.15;11.57;;;16.30;1.00;;;;;;5122812;27;20062;-86
2022/03/13 09:15:48;;;;;;;19.20;11.07;;;16.40;1.00;;;;;;5097135;27;20203;-89
2022/03/13 09:18:35;;;;;;;18.88;11.90;;;16.60;1.00;;;;;;5118150;27;20110;-89
2022/03/13 09:21:00;;;;;;;20.45;11.13;;;15.70;1.00;;;;;;5119505;27;20047;-90
2022/03/13 09:23:27;;;;;;;19.52;11.38;;;17.40;1.00;;;;;;5113799;27;20039;-89
2022/03/13 09:25:53;;;;;;;19.05;11.15;;;18.00;1.00;;;;;;5121178;27;20130;-90
2022/03/13 09:28:26;;;;;;;18.67;11.65;;;18.00;1.00;;;;;;5094722;28;20502;-89
2022/03/13 09:30:52;;;;;;;17.98;11.27;;;18.10;99.90;;;;;;5099692;27;20036;-90
2022/03/13 09:33:18;;;;;;;18.48;11.30;;;18.20;99.90;;;;;;5099847;28;20050;-89
2022/03/13 09:35:47;;;;;;;19.30;11.10;;;17.80;99.90;;;;;;5112056;28;20157;-89
2022/03/13 09:38:13;;;;;;;19.50;11.27;;;17.50;99.90;;;;;;5095657;28;20179;-90
2022/03/13 09:40:40;;;;;;;19.65;11.27;;;16.70;99.90;;;;;;5069549;28;20050;-90
2022/03/13 09:43:05;;;;;;;22.13;11.20;;;17.10;99.90;;;;;;5093356;28;20043;-89
2022/03/13 09:45:32;;;;;;;20.58;11.48;;;17.20;99.90;;;;;;5092911;28;20055;-88
2022/03/13 09:48:01;;;;;;;19.43;10.60;;;17.40;99.90;;;;;;5095899;27;20492;-88
2022/03/13 09:50:28;;;;;;;21.25;11.65;;;17.60;99.90;;;;;;5123463;27;20042;-91
2022/03/13 09:52:54;;;;;;;20.77;11.75;;;18.10;99.90;;;;;;5081224;28;20044;-87
2022/03/13 09:55:20;;;;;;;21.73;11.63;;;19.00;99.90;;;;;;5110818;28;20482;-89
2022/03/13 09:57:48;;;;;;;20.00;10.77;;;18.80;99.90;;;;;;5075112;28;20039;-88
2022/03/13 10:00:18;;;;;;;17.63;10.82;;;19.10;99.90;;;;;;5095637;28;20402;-87
2022/03/13 10:02:46;;;;;;;19.20;11.05;;;20.00;99.90;;;;;;5100475;27;20073;-86
2022/03/13 10:05:20;;;;;;;22.73;12.02;;;20.70;99.90;;;;;;5127670;27;20067;-87
2022/03/13 10:07:54;;;;;;;21.23;10.95;;;20.90;99.90;;;;;;5111963;28;20071;-86
2022/03/13 10:10:21;;;;;;;21.88;11.57;;;21.00;99.90;;;;;;5113763;27;20051;-86
2022/03/13 10:12:47;;;;;;;17.23;10.93;;;21.00;99.90;;;;;;5094487;28;20050;-87
2022/03/13 10:15:13;;;;;;;21.63;11.85;;;19.90;99.90;;;;;;5111833;28;20048;-87
2022/03/13 10:17:43;;;;;;;23.60;11.60;;;19.40;99.90;;;;;;5093414;28;20155;-88
2022/03/13 10:20:20;;;;;;;20.50;10.73;;;18.80;99.90;;;;;;5092388;28;20039;-93
2022/03/13 10:23:16;;;;;;;18.55;11.10;;;17.80;99.90;;;;;;5117010;28;20046;-86
2022/03/13 10:25:43;;;;;;;18.30;10.95;;;17.70;99.90;;;;;;5111153;28;20043;-88
2022/03/13 10:28:24;;;;;;;18.27;11.45;;;17.40;99.90;;;;;;5092528;28;20074;-93
2022/03/13 10:30:58;;;;;;;18.20;11.65;;;17.10;99.90;;;;;;5111298;28;20464;-87
2022/03/13 10:33:26;;;;;;;20.60;11.88;;;17.00;99.90;;;;;;5111682;28;20051;-88
2022/03/13 10:36:17;;;;;;;19.77;11.10;;;17.00;99.90;;;;;;5110964;28;20052;-87
2022/03/13 10:38:44;;;;;;;20.10;11.77;;;17.30;99.90;;;;;;5119037;28;20035;-87
2022/03/13 10:41:12;;;;;;;20.52;11.70;;;17.40;99.90;;;;;;5113076;28;20119;-87
2022/03/13 10:43:57;;;;;;;19.85;11.95;;;18.40;99.90;;;;;;5111442;28;20059;-86
2022/03/13 10:46:32;;;;;;;21.80;10.88;;;18.70;99.90;;;;;;5107815;28;20066;-86
2022/03/13 10:49:00;;;;;;;19.60;11.02;;;18.70;99.90;;;;;;5077686;28;20425;-88
2022/03/13 10:51:48;;;;;;;20.33;11.65;;;19.90;99.90;;;;;;5122514;27;20395;-87
2022/03/13 10:54:34;;;;;;;19.27;11.45;;;20.50;99.90;;;;;;5135658;27;20046;-87
2022/03/13 10:57:19;;;;;;;22.05;11.93;;;20.50;99.90;;;;;;5115336;27;20043;-87
2022/03/13 10:59:45;;;;;;;22.42;11.88;;;20.30;99.90;;;;;;5123543;27;20055;-88
2022/03/13 11:02:16;;;;;;;19.08;11.50;;;20.20;99.90;;;;;;5115414;27;20047;-86
2022/03/13 11:04:57;;;;;;;20.38;11.43;;;20.80;99.90;;;;;;5114862;28;20044;-85
2022/03/13 11:07:27;;;;;;;18.77;11.73;;;21.00;99.90;;;;;;5114822;28;20044;-86
2022/03/13 11:09:59;;;;;;;19.40;11.82;;;20.90;99.90;;;;;;5115092;27;20031;-87
2022/03/13 11:12:26;;;;;;;20.10;12.07;;;20.80;99.90;;;;;;5079293;28;20480;-87
2022/03/13 11:14:55;;;;;;;19.97;12.03;;;21.60;99.90;;;;;;5114086;28;20047;-86
2022/03/13 11:17:24;;;;;;;21.38;11.75;;;21.60;99.90;;;;;;5096529;28;20293;-86
2022/03/13 11:19:53;;;;;;;21.90;11.27;;;21.60;99.90;;;;;;5116114;27;20483;-88
2022/03/13 11:22:20;;;;;;;18.95;11.32;;;21.80;99.90;;;;;;5133071;27;20162;-87
2022/03/13 11:24:48;;;;;;;17.98;10.95;;;22.50;99.90;;;;;;5136179;27;20043;-86
2022/03/13 11:27:15;;;;;;;19.85;10.73;;;22.70;99.90;;;;;;5135703;27;20091;-87
2022/03/13 11:29:46;;;;;;;20.20;10.88;;;21.70;99.90;;;;;;5132150;27;20070;-87
2022/03/13 11:32:38;;;;;;;20.60;11.73;;;21.30;99.90;;;;;;5102431;28;20044;-88
2022/03/13 11:35:16;;;;;;;21.38;11.65;;;20.40;99.90;;;;;;5114225;28;20047;-86
2022/03/13 11:37:43;;;;;;;20.77;11.57;;;20.00;99.90;;;;;;5114098;28;20479;-87
2022/03/13 11:40:11;;;;;;;21.48;11.95;;;20.70;99.90;;;;;;5130484;27;20443;-86
2022/03/13 11:42:50;;;;;;;19.10;10.95;;;21.40;99.90;;;;;;5116322;27;20494;-86
2022/03/13 11:45:32;;;;;;;;;;;21.90;99.90;;;;;;5113091;28;20044;-86
2022/03/13 11:48:14;;;;;;;20.42;10.73;;;22.70;99.90;;;;;;5114454;28;19931;-87
2022/03/13 11:50:58;;;;;;;20.35;12.00;;;23.10;99.90;;;;;;5113171;28;20086;-86
2022/03/13 11:53:39;;;;;;;17.80;10.80;;;21.90;99.90;;;;;;5095467;28;20047;-88
2022/03/13 11:56:06;;;;;;;20.30;11.20;;;21.60;99.90;;;;;;5113601;27;20480;-88
2022/03/13 11:58:38;;;;;;;23.50;11.30;;;20.50;99.90;;;;;;5127879;27;20083;-87
2022/03/13 12:01:15;;;;;;;22.15;12.15;;;20.50;99.90;;;;;;5095221;28;20051;-87
2022/03/13 12:04:01;;;;;;;19.00;11.52;;;20.10;99.90;;;;;;5114735;28;20399;-88
2022/03/13 12:06:41;;;;;;;18.40;11.52;;;20.30;99.90;;;;;;5099630;28;20140;-87
2022/03/13 12:09:07;;;;;;;23.10;12.02;;;20.60;99.90;;;;;;5121147;27;20031;-88
2022/03/13 12:11:43;;;;;;;20.02;11.18;;;21.00;99.90;;;;;;5134379;27;20496;-87
2022/03/13 12:14:11;;;;;;;22.45;11.85;;;20.50;99.90;;;;;;5117241;27;20047;-89
2022/03/13 12:16:42;;;;;;;18.77;12.07;;;20.00;99.90;;;;;;5113680;28;20047;-88
2022/03/13 12:19:10;;;;;;;21.58;12.30;;;18.70;99.90;;;;;;5085314;28;20132;-90
2022/03/13 12:21:37;;;;;;;21.05;11.98;;;17.90;99.90;;;;;;5126047;27;20427;-87
2022/03/13 12:24:17;;;;;;;21.38;12.38;;;17.60;99.90;;;;;;5133397;27;20047;-88
2022/03/13 12:26:46;;;;;;;26.15;12.35;;;17.30;99.90;;;;;;5113825;27;20510;-88
2022/03/13 12:29:17;;;;;;;22.77;11.95;;;17.10;99.90;;;;;;5113101;28;20036;-86
2022/03/13 12:31:48;;;;;;;23.63;12.05;;;17.00;99.90;;;;;;5094697;28;20130;-88
2022/03/13 12:34:27;;;;;;;20.45;11.73;;;16.70;99.90;;;;;;5112613;28;20047;-87
2022/03/13 12:36:53;;;;;;;21.35;11.95;;;16.60;99.90;;;;;;5113033;28;20048;-87
2022/03/13 12:39:20;;;;;;;22.33;13.05;;;16.50;99.90;;;;;;5112936;27;20054;-88
2022/03/13 12:41:58;;;;;;;23.95;13.15;;;16.50;99.90;;;;;;5128845;27;20047;-87
2022/03/13 12:44:24;;;;;;;23.65;12.93;;;16.40;99.90;;;;;;5117601;27;20170;-88
2022/03/13 12:46:52;;;;;;;23.95;13.75;;;16.20;99.90;;;;;;5116830;27;20043;-86
2022/03/13 12:49:29;;;;;;;23.25;12.65;;;16.00;99.90;;;;;;5079685;28;20044;-86